sensor_id;sensor_type;location;lat;lon;timestamp;temperature;humidity
14103;DHT22;7129;48.832;12.472;2022-07-29T04:11:15;19.50;99.90
14103;DHT22;7129;48.832;12.472;2022-07-29T04:42:59;19.70;99.90
14103;DHT22;7129;48.832;12.472;2022-07-29T04:48:04;19.70;99.90
14103;DHT22;7129;48.832;12.472;2022-07-29T04:53:06;19.70;99.90
14103;DHT22;7129;48.832;12.472;2022-07-29T04:58:09;19.70;99.90
14103;DHT22;7129;48.832;12.472;2022-07-29T05:03:11;19.70;99.90
14103;DHT22;7129;48.832;12.472;2022-07-29T05:08:13;19.80;99.90
14103;DHT22;7129;48.832;12.472;2022-07-29T05:13:17;19.80;99.90
14103;DHT22;7129;48.832;12.472;2022-07-29T05:18:18;19.80;99.90
14103;DHT22;7129;48.832;12.472;2022-07-29T05:23:20;19.90;99.90
14103;DHT22;7129;48.832;12.472;2022-07-29T05:28:26;20.00;99.90
14103;DHT22;7129;48.832;12.472;2022-07-29T05:33:28;20.00;99.90
14103;DHT22;7129;48.832;12.472;2022-07-29T05:44:07;20.20;99.90
14103;DHT22;7129;48.832;12.472;2022-07-29T05:49:33;20.30;99.90
14103;DHT22;7129;48.832;12.472;2022-07-29T07:38:09;22.60;97.90
14103;DHT22;7129;48.832;12.472;2022-07-29T07:43:20;22.80;97.90
14103;DHT22;7129;48.832;12.472;2022-07-29T07:48:36;23.20;97.00
14103;DHT22;7129;48.832;12.472;2022-07-29T07:54:17;23.60;96.20
14103;DHT22;7129;48.832;12.472;2022-07-29T07:59:21;24.00;95.80
14103;DHT22;7129;48.832;12.472;2022-07-29T08:04:23;24.40;95.10
14103;DHT22;7129;48.832;12.472;2022-07-29T08:14:56;24.80;94.70
14103;DHT22;7129;48.832;12.472;2022-07-29T08:25:52;25.00;94.20
14103;DHT22;7129;48.832;12.472;2022-07-29T08:30:55;25.20;94.20
14103;DHT22;7129;48.832;12.472;2022-07-29T08:35:57;25.50;93.90
14103;DHT22;7129;48.832;12.472;2022-07-29T08:41:01;25.50;94.30
14103;DHT22;7129;48.832;12.472;2022-07-29T08:46:13;25.50;93.10
14103;DHT22;7129;48.832;12.472;2022-07-29T08:51:20;25.80;93.10
14103;DHT22;7129;48.832;12.472;2022-07-29T08:56:23;26.10;92.10
14103;DHT22;7129;48.832;12.472;2022-07-29T09:01:27;26.30;92.40
14103;DHT22;7129;48.832;12.472;2022-07-29T09:06:38;26.50;91.80
14103;DHT22;7129;48.832;12.472;2022-07-29T09:11:42;26.70;91.30
14103;DHT22;7129;48.832;12.472;2022-07-29T09:17:22;26.70;91.10
14103;DHT22;7129;48.832;12.472;2022-07-29T09:28:21;27.00;90.40
14103;DHT22;7129;48.832;12.472;2022-07-29T09:38:36;27.20;90.70
14103;DHT22;7129;48.832;12.472;2022-07-29T09:43:38;27.40;90.40
14103;DHT22;7129;48.832;12.472;2022-07-29T09:48:41;27.60;90.60
14103;DHT22;7129;48.832;12.472;2022-07-29T09:53:44;27.70;89.00
14103;DHT22;7129;48.832;12.472;2022-07-29T09:58:46;27.70;90.00
14103;DHT22;7129;48.832;12.472;2022-07-29T10:03:51;27.80;88.80
14103;DHT22;7129;48.832;12.472;2022-07-29T10:09:02;28.00;89.80
14103;DHT22;7129;48.832;12.472;2022-07-29T10:14:08;28.10;90.00
14103;DHT22;7129;48.832;12.472;2022-07-29T10:30:32;28.30;86.90
14103;DHT22;7129;48.832;12.472;2022-07-29T10:35:44;28.30;88.20
14103;DHT22;7129;48.832;12.472;2022-07-29T10:40:54;28.00;87.70
14103;DHT22;7129;48.832;12.472;2022-07-29T10:46:17;28.00;88.00
14103;DHT22;7129;48.832;12.472;2022-07-29T10:51:24;27.90;88.10
14103;DHT22;7129;48.832;12.472;2022-07-29T10:56:35;28.00;88.50
14103;DHT22;7129;48.832;12.472;2022-07-29T11:01:38;28.10;87.90
14103;DHT22;7129;48.832;12.472;2022-07-29T11:07:07;28.20;84.20
14103;DHT22;7129;48.832;12.472;2022-07-29T11:29:20;27.70;85.50
14103;DHT22;7129;48.832;12.472;2022-07-29T11:34:33;27.60;87.40
14103;DHT22;7129;48.832;12.472;2022-07-29T11:39:45;28.00;85.00
14103;DHT22;7129;48.832;12.472;2022-07-29T11:56:31;28.30;85.40
14103;DHT22;7129;48.832;12.472;2022-07-29T12:02:14;28.40;83.30
14103;DHT22;7129;48.832;12.472;2022-07-29T12:07:16;28.20;83.30
14103;DHT22;7129;48.832;12.472;2022-07-29T12:12:20;28.10;82.70
14103;DHT22;7129;48.832;12.472;2022-07-29T12:45:46;27.70;85.50
14103;DHT22;7129;48.832;12.472;2022-07-29T13:01:51;27.90;86.80
14103;DHT22;7129;48.832;12.472;2022-07-29T13:07:06;28.00;82.70
14103;DHT22;7129;48.832;12.472;2022-07-29T13:12:10;28.20;83.60
14103;DHT22;7129;48.832;12.472;2022-07-29T13:17:41;28.50;80.70
14103;DHT22;7129;48.832;12.472;2022-07-29T13:58:20;28.10;84.50
14103;DHT22;7129;48.832;12.472;2022-07-29T14:14:14;28.00;80.90
14103;DHT22;7129;48.832;12.472;2022-07-29T14:24:50;28.40;79.00
14103;DHT22;7129;48.832;12.472;2022-07-29T14:30:08;28.20;77.40
14103;DHT22;7129;48.832;12.472;2022-07-29T14:35:10;28.10;76.70
14103;DHT22;7129;48.832;12.472;2022-07-29T14:40:12;28.20;76.50
14103;DHT22;7129;48.832;12.472;2022-07-29T14:45:19;28.20;78.20
14103;DHT22;7129;48.832;12.472;2022-07-29T14:50:21;28.10;76.90
14103;DHT22;7129;48.832;12.472;2022-07-29T14:55:40;28.10;80.00
14103;DHT22;7129;48.832;12.472;2022-07-29T15:06:49;28.20;82.20
14103;DHT22;7129;48.832;12.472;2022-07-29T15:17:28;28.30;81.70
14103;DHT22;7129;48.832;12.472;2022-07-29T15:22:32;28.30;80.40
14103;DHT22;7129;48.832;12.472;2022-07-29T15:27:34;28.40;81.10
14103;DHT22;7129;48.832;12.472;2022-07-29T15:32:36;28.50;80.90
14103;DHT22;7129;48.832;12.472;2022-07-29T17:18:06;26.80;85.40
14103;DHT22;7129;48.832;12.472;2022-07-29T17:23:24;26.70;84.30
14103;DHT22;7129;48.832;12.472;2022-07-29T17:29:00;26.60;85.80
14103;DHT22;7129;48.832;12.472;2022-07-29T20:15:53;24.20;92.10
14103;DHT22;7129;48.832;12.472;2022-07-29T20:20:56;24.10;92.50
14103;DHT22;7129;48.832;12.472;2022-07-29T20:26:21;24.00;92.70
14103;DHT22;7129;48.832;12.472;2022-07-29T20:31:28;23.90;93.10
14103;DHT22;7129;48.832;12.472;2022-07-29T20:36:36;23.90;93.20
14103;DHT22;7129;48.832;12.472;2022-07-29T20:41:43;23.70;93.50
14103;DHT22;7129;48.832;12.472;2022-07-29T20:47:09;23.70;93.80
14103;DHT22;7129;48.832;12.472;2022-07-29T20:52:28;23.60;94.30
14103;DHT22;7129;48.832;12.472;2022-07-29T20:57:30;23.50;94.40
14103;DHT22;7129;48.832;12.472;2022-07-29T21:02:33;23.40;94.80
14103;DHT22;7129;48.832;12.472;2022-07-29T21:07:41;23.30;95.10
14103;DHT22;7129;48.832;12.472;2022-07-29T21:12:46;23.30;94.70
14103;DHT22;7129;48.832;12.472;2022-07-29T21:17:52;23.20;94.50
14103;DHT22;7129;48.832;12.472;2022-07-29T21:23:00;23.10;94.90
14103;DHT22;7129;48.832;12.472;2022-07-29T21:28:04;23.00;95.60
14103;DHT22;7129;48.832;12.472;2022-07-29T21:33:34;22.90;96.20
14103;DHT22;7129;48.832;12.472;2022-07-29T21:38:36;22.80;97.10
14103;DHT22;7129;48.832;12.472;2022-07-29T21:43:38;22.60;97.70
14103;DHT22;7129;48.832;12.472;2022-07-29T21:48:46;22.50;98.10
14103;DHT22;7129;48.832;12.472;2022-07-29T21:53:48;22.40;98.50
14103;DHT22;7129;48.832;12.472;2022-07-29T21:58:51;22.30;98.70
14103;DHT22;7129;48.832;12.472;2022-07-29T22:03:54;22.20;99.20
14103;DHT22;7129;48.832;12.472;2022-07-29T22:08:56;22.10;99.40
14103;DHT22;7129;48.832;12.472;2022-07-29T22:13:58;22.00;99.70
14103;DHT22;7129;48.832;12.472;2022-07-29T22:19:01;21.90;99.90
14103;DHT22;7129;48.832;12.472;2022-07-29T22:24:04;21.80;99.90
14103;DHT22;7129;48.832;12.472;2022-07-29T22:29:06;21.70;99.90
14103;DHT22;7129;48.832;12.472;2022-07-29T22:34:09;21.60;99.90
14103;DHT22;7129;48.832;12.472;2022-07-29T22:39:13;21.50;99.90
14103;DHT22;7129;48.832;12.472;2022-07-29T22:44:15;21.40;99.90
14103;DHT22;7129;48.832;12.472;2022-07-29T22:55:54;21.30;99.90
14103;DHT22;7129;48.832;12.472;2022-07-29T23:00:56;21.20;99.90
14103;DHT22;7129;48.832;12.472;2022-07-29T23:05:58;21.20;99.90
14103;DHT22;7129;48.832;12.472;2022-07-29T23:11:01;21.10;99.90
14103;DHT22;7129;48.832;12.472;2022-07-29T23:16:04;21.10;99.90
14103;DHT22;7129;48.832;12.472;2022-07-29T23:21:06;21.00;99.90
14103;DHT22;7129;48.832;12.472;2022-07-29T23:26:09;21.00;99.90
14103;DHT22;7129;48.832;12.472;2022-07-29T23:31:25;21.00;99.90
14103;DHT22;7129;48.832;12.472;2022-07-29T23:36:27;21.00;99.90
14103;DHT22;7129;48.832;12.472;2022-07-29T23:41:30;20.90;99.90
14103;DHT22;7129;48.832;12.472;2022-07-29T23:46:32;20.90;99.90
14103;DHT22;7129;48.832;12.472;2022-07-29T23:51:34;20.90;99.90
14103;DHT22;7129;48.832;12.472;2022-07-29T23:56:37;20.80;99.90
